EMY weather

El Minya Airport
Minya, Minya Governorate, Egypt

Public forecast

Using degrees Celsius for public forecast. Weather courtesy of forecast.io.

Closest aviation weather report (METAR) to El Minya Airport

Closest report is Assiut International Airport, 65.1 nm (120.5 km) SSE. Retrieved 2020/06/04 05:00 UTC (1 hour ago):

HEAT 040500Z 34005KT CAVOK 24/11 Q1012 NOSIG

Closest aviation forecast (TAF) to El Minya Airport

Closest forecast is Assiut International Airport, 65.1 nm (120.5 km) SSE. Retrieved 2020/06/04 06:00 UTC (5 minutes ago):

TAF HEAT 040500Z 0406/0512 20008G18KT CAVOK TEMPO 0412/0418 4000 SA